createdAt,value
2023-01-26T00:01:32.725Z,4.70
2023-01-26T00:04:00.185Z,4.70
2023-01-26T00:06:27.712Z,4.60
2023-01-26T00:08:59.430Z,4.50
2023-01-26T00:11:29.330Z,4.30
2023-01-26T00:13:58.708Z,4.50
2023-01-26T00:16:27.417Z,6.40
2023-01-26T00:18:55.018Z,4.40
2023-01-26T00:21:24.409Z,4.40
2023-01-26T00:23:52.982Z,4.60
2023-01-26T00:26:23.879Z,4.40
2023-01-26T00:28:52.118Z,4.40
2023-01-26T00:31:25.642Z,4.90
2023-01-26T00:33:55.164Z,4.40
2023-01-26T00:36:23.063Z,4.50
2023-01-26T00:38:50.526Z,4.30
2023-01-26T00:41:36.592Z,4.30
2023-01-26T00:44:04.167Z,4.30
2023-01-26T00:46:31.783Z,4.30
2023-01-26T00:49:01.128Z,4.30
2023-01-26T00:51:28.692Z,4.20
2023-01-26T00:53:57.343Z,4.20
2023-01-26T00:56:27.926Z,4.80
2023-01-26T00:58:55.615Z,4.20
2023-01-26T01:01:23.245Z,4.40
2023-01-26T01:03:52.127Z,4.20
2023-01-26T01:06:19.585Z,4.10
2023-01-26T01:08:47.309Z,4.10
2023-01-26T01:11:15.072Z,4.00
2023-01-26T01:13:42.569Z,4.00
2023-01-26T01:16:12.741Z,4.00
2023-01-26T01:18:40.761Z,4.00
2023-01-26T01:21:12.585Z,4.70
2023-01-26T01:23:40.429Z,3.80
2023-01-26T01:26:08.989Z,3.80
2023-01-26T01:28:37.387Z,3.80
2023-01-26T01:31:05.860Z,4.00
2023-01-26T01:33:33.378Z,3.80
2023-01-26T01:36:03.297Z,3.80
2023-01-26T01:38:31.260Z,3.80
2023-01-26T01:40:59.212Z,3.70
2023-01-26T01:43:27.944Z,3.70
2023-01-26T01:45:56.044Z,4.30
2023-01-26T01:48:43.637Z,3.60
2023-01-26T01:51:37.232Z,3.70
2023-01-26T01:54:13.890Z,3.80
2023-01-26T01:56:48.344Z,3.70
2023-01-26T01:59:20.598Z,3.70
2023-01-26T02:01:51.964Z,4.50
2023-01-26T02:04:21.474Z,3.60
2023-01-26T02:06:51.751Z,3.70
2023-01-26T02:09:44.405Z,3.80
2023-01-26T02:12:14.871Z,3.70
2023-01-26T02:14:42.619Z,4.00
2023-01-26T02:17:10.505Z,3.80
2023-01-26T02:19:57.714Z,3.80
2023-01-26T02:22:33.335Z,3.80
2023-01-26T02:25:07.684Z,3.80
2023-01-26T02:27:35.259Z,4.00
2023-01-26T02:30:05.018Z,4.10
2023-01-26T02:32:33.199Z,3.80
2023-01-26T02:35:00.953Z,3.80
2023-01-26T02:37:28.528Z,3.80
2023-01-26T02:40:01.816Z,3.80
2023-01-26T02:42:38.543Z,4.20
2023-01-26T02:45:07.089Z,3.80
2023-01-26T02:47:34.810Z,3.80
2023-01-26T02:50:05.334Z,3.80
2023-01-26T02:52:33.776Z,3.80
2023-01-26T02:55:30.805Z,3.80
2023-01-26T02:58:04.941Z,3.70
2023-01-26T03:00:41.921Z,3.60
2023-01-26T03:03:26.613Z,3.70
2023-01-26T03:05:54.212Z,3.40
2023-01-26T03:08:21.714Z,3.40
2023-01-26T03:10:49.150Z,3.20
2023-01-26T03:13:18.245Z,3.20
2023-01-26T03:15:52.742Z,3.50
2023-01-26T03:18:42.175Z,3.60
2023-01-26T03:21:35.158Z,3.10
2023-01-26T03:24:21.610Z,2.90
2023-01-26T03:27:08.549Z,2.80
2023-01-26T03:29:36.745Z,2.90
2023-01-26T03:32:04.396Z,2.80
2023-01-26T03:34:32.301Z,2.70
2023-01-26T03:37:00.304Z,2.70
2023-01-26T03:39:53.603Z,2.70
2023-01-26T03:42:40.046Z,3.70
2023-01-26T03:45:26.489Z,2.60
2023-01-26T03:48:21.048Z,2.60
2023-01-26T03:51:07.047Z,2.50
2023-01-26T03:53:53.074Z,3.20
2023-01-26T03:56:24.537Z,2.40
2023-01-26T03:59:12.244Z,2.40
2023-01-26T04:02:04.154Z,2.40
2023-01-26T04:04:51.609Z,2.30
2023-01-26T04:07:40.464Z,2.30
2023-01-26T04:10:08.710Z,2.30
2023-01-26T04:12:36.454Z,2.30
2023-01-26T04:15:33.033Z,2.30
2023-01-26T04:18:25.593Z,2.30
2023-01-26T04:21:11.912Z,2.30
2023-01-26T04:23:41.830Z,2.20
2023-01-26T04:26:09.713Z,2.20
2023-01-26T04:28:38.267Z,2.20
2023-01-26T04:31:06.455Z,2.20
2023-01-26T04:33:36.887Z,2.50
2023-01-26T04:36:07.149Z,2.10
2023-01-26T04:38:37.494Z,2.10
2023-01-26T04:41:05.238Z,2.10
2023-01-26T04:43:39.196Z,3.50
2023-01-26T04:46:08.456Z,2.10
2023-01-26T04:48:38.533Z,2.10
2023-01-26T04:51:11.232Z,2.80
2023-01-26T04:53:39.310Z,2.20
2023-01-26T04:56:09.726Z,4.50
2023-01-26T04:58:37.247Z,2.10
2023-01-26T05:01:04.770Z,3.00
2023-01-26T05:03:32.849Z,2.90
2023-01-26T05:06:00.507Z,2.60
2023-01-26T05:08:27.983Z,2.10
2023-01-26T05:10:55.524Z,2.10
2023-01-26T05:13:26.314Z,2.10
2023-01-26T05:16:06.131Z,2.30
2023-01-26T05:18:54.107Z,2.10
2023-01-26T05:21:40.343Z,2.10
2023-01-26T05:24:08.540Z,2.10
2023-01-26T05:27:23.713Z,2.10
2023-01-26T05:30:01.288Z,2.10
2023-01-26T05:32:31.852Z,2.10
2023-01-26T05:34:59.543Z,2.30
2023-01-26T05:37:28.543Z,2.20
2023-01-26T05:39:59.564Z,2.30
2023-01-26T05:42:27.524Z,2.40
2023-01-26T05:45:00.862Z,2.50
2023-01-26T05:47:29.756Z,2.60
2023-01-26T05:49:58.380Z,2.70
2023-01-26T05:52:29.216Z,3.30
2023-01-26T05:54:56.776Z,2.90
2023-01-26T05:57:25.189Z,3.00
2023-01-26T06:00:00.295Z,3.10
2023-01-26T06:02:28.039Z,3.20
2023-01-26T06:04:56.011Z,3.30
2023-01-26T06:07:23.876Z,3.30
2023-01-26T06:10:06.408Z,3.40
2023-01-26T06:12:52.251Z,3.40
2023-01-26T06:15:39.960Z,3.40
2023-01-26T06:18:08.273Z,6.00
2023-01-26T06:20:37.217Z,3.50
2023-01-26T06:23:11.681Z,3.80
2023-01-26T06:25:39.881Z,3.50
2023-01-26T06:28:08.172Z,4.40
2023-01-26T06:30:36.285Z,3.60
2023-01-26T06:33:08.015Z,3.60
2023-01-26T06:35:38.037Z,3.60
2023-01-26T06:38:10.472Z,4.70
2023-01-26T06:40:38.011Z,3.70
2023-01-26T06:43:06.809Z,4.00
2023-01-26T06:45:37.484Z,3.70
2023-01-26T06:48:05.231Z,4.00
2023-01-26T06:50:36.727Z,3.80
2023-01-26T06:53:26.536Z,3.80
2023-01-26T06:56:12.826Z,3.90
2023-01-26T06:58:55.644Z,4.20
2023-01-26T07:01:44.377Z,3.90
2023-01-26T07:04:11.956Z,3.90
2023-01-26T07:06:39.399Z,4.00
2023-01-26T07:09:06.969Z,4.00
2023-01-26T07:11:34.404Z,4.00
2023-01-26T07:14:01.906Z,4.50
2023-01-26T07:16:31.944Z,3.80
2023-01-26T07:19:01.280Z,4.00
2023-01-26T07:21:28.962Z,4.00
2023-01-26T07:23:56.620Z,4.30
2023-01-26T07:26:24.215Z,4.20
2023-01-26T07:28:51.696Z,4.00
2023-01-26T07:31:19.392Z,4.30
2023-01-26T07:33:46.902Z,4.60
2023-01-26T07:36:14.570Z,4.10
2023-01-26T07:38:42.111Z,4.90
2023-01-26T07:41:11.857Z,4.10
2023-01-26T07:43:40.306Z,4.10
2023-01-26T07:46:11.144Z,5.00
2023-01-26T07:48:39.078Z,4.10
2023-01-26T07:51:09.156Z,4.10
2023-01-26T07:53:39.541Z,4.10
2023-01-26T07:56:16.026Z,4.20
2023-01-26T07:58:43.514Z,4.10
2023-01-26T08:01:15.060Z,4.10
2023-01-26T08:03:45.428Z,4.10
2023-01-26T08:06:14.706Z,4.20
2023-01-26T08:08:43.288Z,4.10
2023-01-26T08:11:11.941Z,4.10
2023-01-26T08:13:39.444Z,4.10
2023-01-26T08:16:12.678Z,4.80
2023-01-26T08:18:42.253Z,4.20
2023-01-26T08:21:11.174Z,4.20
2023-01-26T08:23:41.288Z,4.30
2023-01-26T08:26:11.485Z,4.40
2023-01-26T08:28:39.404Z,4.30
2023-01-26T08:31:12.845Z,4.30
2023-01-26T08:33:42.709Z,4.60
2023-01-26T08:36:15.265Z,4.40
2023-01-26T08:38:43.816Z,4.40
2023-01-26T08:41:12.333Z,5.40
2023-01-26T08:43:40.593Z,4.40
2023-01-26T08:46:09.126Z,4.50
2023-01-26T08:48:37.364Z,4.50
2023-01-26T08:51:06.650Z,4.60
2023-01-26T08:53:36.214Z,4.60
2023-01-26T08:56:08.940Z,6.10
2023-01-26T08:58:36.929Z,4.60
2023-01-26T09:01:11.269Z,4.70
2023-01-26T09:03:39.354Z,4.70
2023-01-26T09:06:08.516Z,4.70
2023-01-26T09:08:36.370Z,4.90
2023-01-26T09:11:06.624Z,4.80
2023-01-26T09:13:34.317Z,6.60
2023-01-26T09:16:07.187Z,4.90
2023-01-26T09:18:34.969Z,4.90
2023-01-26T09:21:06.994Z,5.40
2023-01-26T09:23:35.540Z,5.00
2023-01-26T09:26:03.684Z,5.80
2023-01-26T09:28:31.117Z,5.20
2023-01-26T09:31:06.850Z,5.10
2023-01-26T09:33:34.643Z,5.20
2023-01-26T09:36:11.044Z,5.10
2023-01-26T09:38:39.046Z,5.10
2023-01-26T09:41:34.107Z,6.00
2023-01-26T09:44:08.268Z,5.10
2023-01-26T09:46:44.644Z,5.10
2023-01-26T09:49:26.720Z,5.20
2023-01-26T09:52:14.405Z,5.20
2023-01-26T09:54:56.239Z,5.20
2023-01-26T09:57:31.547Z,5.20
2023-01-26T10:00:09.260Z,5.20
2023-01-26T10:03:17.560Z,7.10
2023-01-26T10:06:00.820Z,5.30
2023-01-26T10:08:47.781Z,5.30
2023-01-26T10:11:27.469Z,5.30
2023-01-26T10:14:04.508Z,5.30
2023-01-26T10:16:34.281Z,6.70
2023-01-26T10:19:42.391Z,5.30
2023-01-26T10:22:27.826Z,5.40
2023-01-26T10:24:57.082Z,5.50
2023-01-26T10:27:24.532Z,5.60
2023-01-26T10:29:51.950Z,5.50
2023-01-26T10:32:19.592Z,6.60
2023-01-26T10:34:49.591Z,5.80
2023-01-26T10:37:22.980Z,5.50
2023-01-26T10:40:02.363Z,5.60
2023-01-26T10:42:36.376Z,5.70
2023-01-26T10:45:25.878Z,5.50
2023-01-26T10:48:16.583Z,6.90
2023-01-26T10:50:44.959Z,5.70
2023-01-26T10:53:19.139Z,5.30
2023-01-26T10:56:03.264Z,5.80
2023-01-26T10:58:59.322Z,5.70
2023-01-26T11:01:29.683Z,5.70
2023-01-26T11:04:07.258Z,5.90
2023-01-26T11:06:35.459Z,5.70
2023-01-26T11:09:14.891Z,5.60
2023-01-26T11:11:42.455Z,7.40
2023-01-26T11:14:16.943Z,6.90
2023-01-26T11:16:50.631Z,5.70
2023-01-26T11:19:26.873Z,5.70
2023-01-26T11:21:59.366Z,5.70
2023-01-26T11:24:32.015Z,7.00
2023-01-26T11:27:29.958Z,5.70
2023-01-26T11:30:32.180Z,5.70
2023-01-26T11:33:23.645Z,5.80
2023-01-26T11:36:17.244Z,5.80
2023-01-26T11:39:10.524Z,5.60
2023-01-26T11:42:13.202Z,5.80
2023-01-26T11:44:55.498Z,5.80
2023-01-26T11:47:42.001Z,5.90
2023-01-26T11:50:43.044Z,5.90
2023-01-26T11:53:42.924Z,5.90
2023-01-26T11:56:31.843Z,6.00
2023-01-26T11:59:06.590Z,6.10
2023-01-26T12:01:40.024Z,6.10
2023-01-26T12:04:18.588Z,6.30
2023-01-26T12:06:53.576Z,6.90
2023-01-26T12:09:36.568Z,6.40
2023-01-26T12:12:31.274Z,6.50
2023-01-26T12:15:38.092Z,6.60
2023-01-26T12:18:10.256Z,7.70
2023-01-26T12:20:45.968Z,7.70
2023-01-26T12:23:49.200Z,6.70
2023-01-26T12:26:19.483Z,6.70
2023-01-26T12:29:09.305Z,6.60
2023-01-26T12:32:04.096Z,6.70
2023-01-26T12:34:34.069Z,6.80
2023-01-26T12:37:23.342Z,7.10
2023-01-26T12:40:00.960Z,6.80
2023-01-26T12:42:58.049Z,6.80
2023-01-26T12:45:32.545Z,6.90
2023-01-26T12:48:07.873Z,6.90
2023-01-26T12:50:47.734Z,7.10
2023-01-26T12:53:49.230Z,7.00
2023-01-26T12:56:30.352Z,7.00
2023-01-26T12:58:59.805Z,7.60
2023-01-26T13:01:38.956Z,8.00
2023-01-26T13:04:12.314Z,7.30
2023-01-26T13:06:40.133Z,7.20
2023-01-26T13:09:27.582Z,7.10
2023-01-26T13:11:57.058Z,7.40
2023-01-26T13:14:36.625Z,7.20
2023-01-26T13:17:16.359Z,7.20
2023-01-26T13:19:44.027Z,7.30
2023-01-26T13:22:24.052Z,7.30
2023-01-26T13:24:56.466Z,7.90
2023-01-26T13:28:00.356Z,7.60
2023-01-26T13:30:44.894Z,7.60
2023-01-26T13:33:24.457Z,7.60
2023-01-26T13:35:55.098Z,7.60
2023-01-26T13:38:29.128Z,7.70
2023-01-26T13:40:57.017Z,7.70
2023-01-26T13:43:32.833Z,8.70
2023-01-26T13:46:15.203Z,7.70
2023-01-26T13:48:53.756Z,7.70
2023-01-26T13:51:37.277Z,7.60
2023-01-26T13:54:15.311Z,7.70
2023-01-26T13:56:43.588Z,7.70
2023-01-26T13:59:12.868Z,7.60
2023-01-26T14:01:52.359Z,7.80
2023-01-26T14:04:25.191Z,8.10
2023-01-26T14:07:06.104Z,7.60
2023-01-26T14:09:48.269Z,8.20
2023-01-26T14:12:29.473Z,8.10
2023-01-26T14:15:00.787Z,7.60
2023-01-26T14:17:31.430Z,7.60
2023-01-26T14:20:03.713Z,7.60
2023-01-26T14:22:31.539Z,7.60
2023-01-26T14:24:59.058Z,7.60
2023-01-26T14:27:38.869Z,7.60
2023-01-26T14:30:26.503Z,7.60
2023-01-26T14:33:07.723Z,7.60
2023-01-26T14:35:35.174Z,7.60
2023-01-26T14:38:11.780Z,8.20
2023-01-26T14:40:46.440Z,7.80
2023-01-26T14:43:14.679Z,8.00
2023-01-26T14:46:08.916Z,7.50
2023-01-26T14:48:44.778Z,7.50
2023-01-26T14:51:20.434Z,7.50
2023-01-26T14:53:54.414Z,7.50
2023-01-26T14:56:31.608Z,7.50
2023-01-26T14:58:59.184Z,7.70
2023-01-26T15:01:27.900Z,7.40
2023-01-26T15:04:03.806Z,7.40
2023-01-26T15:06:32.548Z,7.40
2023-01-26T15:09:26.727Z,7.30
2023-01-26T15:12:17.543Z,7.30
2023-01-26T15:14:51.270Z,7.30
2023-01-26T15:17:39.325Z,7.20
2023-01-26T15:20:15.022Z,8.20
2023-01-26T15:22:50.323Z,7.00
2023-01-26T15:25:21.069Z,7.00
2023-01-26T15:27:58.772Z,7.00
2023-01-26T15:30:31.043Z,6.90
2023-01-26T15:32:58.935Z,6.90
2023-01-26T15:35:29.495Z,6.80
2023-01-26T15:38:04.471Z,6.80
2023-01-26T15:40:32.389Z,6.80
2023-01-26T15:43:20.112Z,6.80
2023-01-26T15:45:59.974Z,6.90
2023-01-26T15:48:31.645Z,6.90
2023-01-26T15:50:59.137Z,6.90
2023-01-26T15:53:27.091Z,6.90
2023-01-26T15:55:56.035Z,6.90
2023-01-26T15:58:24.803Z,8.00
2023-01-26T16:00:53.269Z,6.70
2023-01-26T16:03:22.479Z,7.40
2023-01-26T16:05:50.137Z,7.20
2023-01-26T16:08:19.008Z,6.70
2023-01-26T16:10:47.288Z,6.70
2023-01-26T16:13:17.849Z,6.90
2023-01-26T16:15:46.661Z,6.60
2023-01-26T16:18:14.556Z,6.70
2023-01-26T16:20:43.949Z,7.50
2023-01-26T16:23:22.916Z,7.30
2023-01-26T16:25:53.036Z,6.50
2023-01-26T16:28:21.008Z,6.40
2023-01-26T16:30:50.851Z,8.30
2023-01-26T16:33:25.952Z,6.50
2023-01-26T16:35:54.639Z,6.70
2023-01-26T16:38:22.200Z,7.30
2023-01-26T16:40:49.871Z,6.60
2023-01-26T16:43:24.068Z,7.20
2023-01-26T16:45:52.771Z,6.60
2023-01-26T16:48:21.533Z,8.00
2023-01-26T16:50:52.929Z,7.70
2023-01-26T16:53:32.941Z,6.60
2023-01-26T16:56:00.557Z,6.60
2023-01-26T16:58:32.525Z,6.60
2023-01-26T17:01:00.450Z,6.60
2023-01-26T17:03:27.966Z,6.60
2023-01-26T17:05:56.499Z,7.70
2023-01-26T17:08:24.014Z,6.40
2023-01-26T17:11:01.717Z,6.40
2023-01-26T17:13:33.293Z,7.70
2023-01-26T17:16:00.828Z,7.80
2023-01-26T17:18:28.505Z,6.40
2023-01-26T17:21:02.189Z,6.40
2023-01-26T17:23:29.607Z,6.50
2023-01-26T17:26:00.689Z,6.40
2023-01-26T17:28:28.201Z,7.70
2023-01-26T17:30:55.633Z,7.10
2023-01-26T17:33:23.112Z,6.50
2023-01-26T17:36:00.002Z,6.50
2023-01-26T17:38:27.551Z,7.50
2023-01-26T17:40:56.393Z,6.50
2023-01-26T17:43:24.598Z,7.10
2023-01-26T17:45:52.321Z,6.50
2023-01-26T17:48:19.728Z,6.50
2023-01-26T17:50:50.926Z,6.90
2023-01-26T17:53:18.789Z,6.40
2023-01-26T17:55:46.418Z,6.50
2023-01-26T17:58:13.831Z,6.50
2023-01-26T18:00:42.066Z,7.50
2023-01-26T18:03:10.732Z,6.40
2023-01-26T18:05:38.167Z,6.40
2023-01-26T18:08:05.721Z,6.40
2023-01-26T18:10:33.320Z,6.40
2023-01-26T18:13:00.822Z,6.40
2023-01-26T18:15:28.236Z,6.40
2023-01-26T18:17:55.670Z,6.30
2023-01-26T18:20:23.261Z,7.20
2023-01-26T18:22:50.734Z,7.30
2023-01-26T18:25:20.558Z,6.30
2023-01-26T18:27:48.301Z,7.30
2023-01-26T18:30:15.993Z,6.30
2023-01-26T18:32:43.584Z,6.20
2023-01-26T18:35:11.893Z,7.40
2023-01-26T18:37:39.498Z,6.20
2023-01-26T18:40:08.289Z,7.50
2023-01-26T18:42:35.756Z,6.10
2023-01-26T18:45:03.462Z,6.00
2023-01-26T18:47:32.282Z,6.00
2023-01-26T18:49:59.850Z,6.20
2023-01-26T18:52:28.577Z,5.90
2023-01-26T18:54:57.647Z,6.00
2023-01-26T18:57:25.112Z,7.60
2023-01-26T18:59:52.517Z,5.90
2023-01-26T19:02:19.986Z,6.20
2023-01-26T19:04:47.409Z,5.90
2023-01-26T19:07:15.305Z,5.90
2023-01-26T19:09:42.759Z,6.60
2023-01-26T19:12:10.664Z,5.80
2023-01-26T19:14:38.291Z,6.00
2023-01-26T19:17:05.762Z,6.50
2023-01-26T19:19:33.268Z,5.80
2023-01-26T19:22:00.723Z,7.40
2023-01-26T19:24:28.272Z,7.40
2023-01-26T19:26:55.809Z,5.70
2023-01-26T19:29:23.437Z,6.00
2023-01-26T19:31:51.009Z,7.50
2023-01-26T19:34:19.851Z,5.70
2023-01-26T19:36:53.328Z,5.70
2023-01-26T19:39:20.804Z,7.20
2023-01-26T19:41:48.614Z,7.00
2023-01-26T19:44:16.175Z,5.60
2023-01-26T19:46:43.663Z,5.60
2023-01-26T19:49:13.399Z,5.80
2023-01-26T19:51:40.913Z,5.80
2023-01-26T19:54:08.979Z,5.70
2023-01-26T19:56:36.791Z,5.50
2023-01-26T19:59:10.160Z,5.50
2023-01-26T20:01:38.535Z,5.50
2023-01-26T20:04:11.708Z,5.50
2023-01-26T20:06:39.599Z,5.50
2023-01-26T20:09:07.888Z,5.50
2023-01-26T20:11:35.820Z,5.60
2023-01-26T20:14:08.633Z,5.50
2023-01-26T20:16:36.865Z,5.40
2023-01-26T20:19:04.559Z,5.50
2023-01-26T20:21:35.331Z,5.50
2023-01-26T20:24:06.743Z,5.50
2023-01-26T20:26:35.366Z,7.00
2023-01-26T20:29:03.414Z,5.40
2023-01-26T20:31:32.674Z,5.40
2023-01-26T20:34:01.586Z,7.50
2023-01-26T20:36:29.369Z,5.60
2023-01-26T20:38:57.311Z,5.50
2023-01-26T20:41:27.425Z,5.50
2023-01-26T20:44:00.434Z,5.50
2023-01-26T20:46:31.926Z,5.70
2023-01-26T20:48:59.808Z,5.90
2023-01-26T20:51:30.540Z,5.50
2023-01-26T20:53:58.350Z,7.20
2023-01-26T20:56:26.364Z,5.50
2023-01-26T20:58:54.913Z,5.50
2023-01-26T21:01:23.529Z,6.80
2023-01-26T21:03:51.608Z,7.10
2023-01-26T21:06:20.581Z,5.50
2023-01-26T21:08:49.731Z,6.80
2023-01-26T21:11:23.775Z,6.20
2023-01-26T21:13:52.045Z,5.40
2023-01-26T21:16:19.827Z,5.40
2023-01-26T21:18:47.602Z,7.00
2023-01-26T21:21:18.980Z,5.40
2023-01-26T21:23:46.862Z,5.40
2023-01-26T21:26:21.897Z,5.40
2023-01-26T21:28:51.476Z,5.40
2023-01-26T21:31:20.760Z,6.90
2023-01-26T21:33:49.224Z,5.40
2023-01-26T21:36:19.807Z,5.30
2023-01-26T21:38:50.815Z,5.30
2023-01-26T21:41:48.601Z,5.60
2023-01-26T21:44:20.201Z,5.30
2023-01-26T21:46:49.993Z,5.30
2023-01-26T21:49:17.973Z,5.60
2023-01-26T21:52:03.954Z,5.30
2023-01-26T21:54:32.130Z,5.20
2023-01-26T21:57:00.331Z,5.20
2023-01-26T21:59:28.806Z,5.30
2023-01-26T22:01:57.916Z,6.70
2023-01-26T22:04:30.160Z,5.20
2023-01-26T22:06:58.126Z,5.20
2023-01-26T22:09:25.693Z,5.30
2023-01-26T22:11:53.087Z,5.20
2023-01-26T22:14:23.064Z,5.20
2023-01-26T22:16:50.773Z,6.40
2023-01-26T22:19:21.022Z,5.20
2023-01-26T22:21:48.540Z,6.40
2023-01-26T22:24:17.921Z,5.20
2023-01-26T22:26:45.512Z,5.40
2023-01-26T22:29:13.202Z,5.20
2023-01-26T22:31:41.744Z,5.10
2023-01-26T22:34:11.376Z,5.10
2023-01-26T22:36:40.248Z,5.00
2023-01-26T22:39:12.188Z,5.70
2023-01-26T22:41:43.177Z,5.20
2023-01-26T22:44:11.276Z,5.40
2023-01-26T22:46:38.756Z,5.10
2023-01-26T22:49:06.137Z,5.00
2023-01-26T22:51:37.075Z,5.00
2023-01-26T22:54:05.479Z,5.00
2023-01-26T22:56:33.761Z,5.00
2023-01-26T22:59:01.233Z,5.00
2023-01-26T23:01:31.296Z,4.90
2023-01-26T23:03:59.740Z,4.90
2023-01-26T23:06:27.904Z,4.90
2023-01-26T23:08:55.420Z,5.00
2023-01-26T23:11:28.207Z,4.90
2023-01-26T23:13:57.552Z,6.10
2023-01-26T23:16:25.892Z,6.60
2023-01-26T23:18:55.423Z,4.90
2023-01-26T23:21:23.897Z,4.60
2023-01-26T23:23:51.413Z,4.80
2023-01-26T23:26:19.007Z,4.80
2023-01-26T23:28:46.817Z,4.80
2023-01-26T23:31:16.523Z,4.80
2023-01-26T23:33:44.172Z,4.90
2023-01-26T23:36:13.184Z,6.60
2023-01-26T23:38:40.738Z,4.80
2023-01-26T23:41:11.942Z,4.80
2023-01-26T23:43:39.678Z,5.00
2023-01-26T23:46:08.528Z,4.80
2023-01-26T23:48:36.160Z,4.80
2023-01-26T23:51:07.479Z,4.80
2023-01-26T23:53:35.222Z,4.80
2023-01-26T23:56:07.424Z,4.80
2023-01-26T23:58:37.264Z,4.80
